sensor_id;sensor_type;location;lat;lon;timestamp;P1;durP1;ratioP1;P2;durP2;ratioP2
60653;SDS011;46476;53.614;10.048;2022-11-14T00:02:08;23.15;;;14.07;;
60653;SDS011;46476;53.614;10.048;2022-11-14T00:04:34;23.33;;;14.57;;
60653;SDS011;46476;53.614;10.048;2022-11-14T00:07:00;21.60;;;14.02;;
60653;SDS011;46476;53.614;10.048;2022-11-14T00:09:25;22.48;;;14.57;;
60653;SDS011;46476;53.614;10.048;2022-11-14T00:11:51;22.60;;;14.60;;
60653;SDS011;46476;53.614;10.048;2022-11-14T00:14:17;21.50;;;13.73;;
60653;SDS011;46476;53.614;10.048;2022-11-14T00:16:42;23.77;;;15.15;;
60653;SDS011;46476;53.614;10.048;2022-11-14T00:19:08;21.17;;;14.43;;
60653;SDS011;46476;53.614;10.048;2022-11-14T00:21:33;20.00;;;13.68;;
60653;SDS011;46476;53.614;10.048;2022-11-14T00:23:59;22.35;;;14.10;;
60653;SDS011;46476;53.614;10.048;2022-11-14T00:26:24;24.58;;;14.70;;
60653;SDS011;46476;53.614;10.048;2022-11-14T00:28:49;25.73;;;14.65;;
60653;SDS011;46476;53.614;10.048;2022-11-14T00:31:15;23.83;;;14.18;;
60653;SDS011;46476;53.614;10.048;2022-11-14T00:33:40;22.90;;;14.63;;
60653;SDS011;46476;53.614;10.048;2022-11-14T00:36:06;24.90;;;14.70;;
60653;SDS011;46476;53.614;10.048;2022-11-14T00:38:31;22.40;;;14.52;;
60653;SDS011;46476;53.614;10.048;2022-11-14T00:40:56;20.50;;;12.98;;
60653;SDS011;46476;53.614;10.048;2022-11-14T00:43:22;25.60;;;15.07;;
60653;SDS011;46476;53.614;10.048;2022-11-14T00:45:47;22.65;;;14.35;;
60653;SDS011;46476;53.614;10.048;2022-11-14T00:48:13;26.45;;;15.38;;
60653;SDS011;46476;53.614;10.048;2022-11-14T00:50:39;27.45;;;14.98;;
60653;SDS011;46476;53.614;10.048;2022-11-14T00:53:04;25.75;;;15.55;;
60653;SDS011;46476;53.614;10.048;2022-11-14T00:55:30;24.08;;;14.73;;
60653;SDS011;46476;53.614;10.048;2022-11-14T00:57:55;23.27;;;14.52;;
60653;SDS011;46476;53.614;10.048;2022-11-14T01:00:20;23.60;;;14.77;;
60653;SDS011;46476;53.614;10.048;2022-11-14T01:02:46;22.90;;;14.65;;
60653;SDS011;46476;53.614;10.048;2022-11-14T01:05:11;24.30;;;14.20;;
60653;SDS011;46476;53.614;10.048;2022-11-14T01:07:37;21.95;;;13.85;;
60653;SDS011;46476;53.614;10.048;2022-11-14T01:10:02;24.13;;;15.40;;
60653;SDS011;46476;53.614;10.048;2022-11-14T01:12:28;24.73;;;14.85;;
60653;SDS011;46476;53.614;10.048;2022-11-14T01:14:53;26.40;;;15.60;;
60653;SDS011;46476;53.614;10.048;2022-11-14T01:17:19;24.63;;;15.88;;
60653;SDS011;46476;53.614;10.048;2022-11-14T01:19:44;23.70;;;14.63;;
60653;SDS011;46476;53.614;10.048;2022-11-14T01:22:09;23.40;;;14.57;;
60653;SDS011;46476;53.614;10.048;2022-11-14T01:24:35;24.33;;;15.25;;
60653;SDS011;46476;53.614;10.048;2022-11-14T01:27:00;24.70;;;14.90;;
60653;SDS011;46476;53.614;10.048;2022-11-14T01:29:26;26.30;;;14.40;;
60653;SDS011;46476;53.614;10.048;2022-11-14T01:31:52;23.50;;;14.63;;
60653;SDS011;46476;53.614;10.048;2022-11-14T01:34:17;25.00;;;15.07;;
60653;SDS011;46476;53.614;10.048;2022-11-14T01:36:43;23.08;;;14.45;;
60653;SDS011;46476;53.614;10.048;2022-11-14T01:39:08;22.13;;;14.77;;
60653;SDS011;46476;53.614;10.048;2022-11-14T01:41:34;25.70;;;14.82;;
60653;SDS011;46476;53.614;10.048;2022-11-14T01:43:59;30.65;;;16.20;;
60653;SDS011;46476;53.614;10.048;2022-11-14T01:46:25;23.70;;;14.45;;
60653;SDS011;46476;53.614;10.048;2022-11-14T01:49:33;25.88;;;15.23;;
60653;SDS011;46476;53.614;10.048;2022-11-14T01:54:27;24.80;;;15.10;;
60653;SDS011;46476;53.614;10.048;2022-11-14T01:56:55;25.00;;;14.80;;
60653;SDS011;46476;53.614;10.048;2022-11-14T01:59:25;24.83;;;14.52;;
60653;SDS011;46476;53.614;10.048;2022-11-14T02:01:55;25.33;;;15.10;;
60653;SDS011;46476;53.614;10.048;2022-11-14T02:04:25;25.50;;;14.90;;
60653;SDS011;46476;53.614;10.048;2022-11-14T02:06:56;25.55;;;15.05;;
60653;SDS011;46476;53.614;10.048;2022-11-14T02:09:25;28.73;;;16.98;;
60653;SDS011;46476;53.614;10.048;2022-11-14T02:11:54;25.80;;;15.27;;
60653;SDS011;46476;53.614;10.048;2022-11-14T02:14:23;25.63;;;14.88;;
60653;SDS011;46476;53.614;10.048;2022-11-14T02:16:48;24.20;;;15.00;;
60653;SDS011;46476;53.614;10.048;2022-11-14T02:19:14;29.92;;;16.13;;
60653;SDS011;46476;53.614;10.048;2022-11-14T02:21:39;26.08;;;16.52;;
60653;SDS011;46476;53.614;10.048;2022-11-14T02:24:09;27.48;;;16.52;;
60653;SDS011;46476;53.614;10.048;2022-11-14T02:26:36;24.83;;;15.93;;
60653;SDS011;46476;53.614;10.048;2022-11-14T02:29:03;28.48;;;16.15;;
60653;SDS011;46476;53.614;10.048;2022-11-14T02:31:29;28.25;;;15.80;;
60653;SDS011;46476;53.614;10.048;2022-11-14T02:33:55;27.52;;;16.02;;
60653;SDS011;46476;53.614;10.048;2022-11-14T02:36:20;26.88;;;15.70;;
60653;SDS011;46476;53.614;10.048;2022-11-14T02:38:46;26.45;;;15.77;;
60653;SDS011;46476;53.614;10.048;2022-11-14T02:41:11;27.05;;;16.17;;
60653;SDS011;46476;53.614;10.048;2022-11-14T02:43:36;27.35;;;15.82;;
60653;SDS011;46476;53.614;10.048;2022-11-14T02:46:02;27.40;;;16.35;;
60653;SDS011;46476;53.614;10.048;2022-11-14T02:48:27;30.17;;;17.08;;
60653;SDS011;46476;53.614;10.048;2022-11-14T02:50:52;27.88;;;15.75;;
60653;SDS011;46476;53.614;10.048;2022-11-14T02:53:18;29.27;;;16.67;;
60653;SDS011;46476;53.614;10.048;2022-11-14T02:55:43;26.35;;;15.63;;
60653;SDS011;46476;53.614;10.048;2022-11-14T02:58:08;27.20;;;16.05;;
60653;SDS011;46476;53.614;10.048;2022-11-14T03:00:34;27.13;;;16.10;;
60653;SDS011;46476;53.614;10.048;2022-11-14T03:02:59;26.77;;;15.48;;
60653;SDS011;46476;53.614;10.048;2022-11-14T03:05:25;28.00;;;16.10;;
60653;SDS011;46476;53.614;10.048;2022-11-14T03:07:53;26.63;;;16.05;;
60653;SDS011;46476;53.614;10.048;2022-11-14T03:10:20;25.92;;;15.70;;
60653;SDS011;46476;53.614;10.048;2022-11-14T03:12:46;27.00;;;15.38;;
60653;SDS011;46476;53.614;10.048;2022-11-14T03:15:12;28.48;;;16.45;;
60653;SDS011;46476;53.614;10.048;2022-11-14T03:17:37;25.63;;;15.23;;
60653;SDS011;46476;53.614;10.048;2022-11-14T03:20:04;28.13;;;15.82;;
60653;SDS011;46476;53.614;10.048;2022-11-14T03:22:30;30.38;;;16.60;;
60653;SDS011;46476;53.614;10.048;2022-11-14T03:24:55;27.83;;;16.10;;
60653;SDS011;46476;53.614;10.048;2022-11-14T03:27:21;28.27;;;16.67;;
60653;SDS011;46476;53.614;10.048;2022-11-14T03:29:46;28.77;;;16.27;;
60653;SDS011;46476;53.614;10.048;2022-11-14T03:32:13;30.13;;;17.30;;
60653;SDS011;46476;53.614;10.048;2022-11-14T03:34:38;28.38;;;16.42;;
60653;SDS011;46476;53.614;10.048;2022-11-14T03:37:04;28.77;;;16.98;;
60653;SDS011;46476;53.614;10.048;2022-11-14T03:39:29;26.15;;;15.63;;
60653;SDS011;46476;53.614;10.048;2022-11-14T03:41:54;31.58;;;16.77;;
60653;SDS011;46476;53.614;10.048;2022-11-14T03:44:20;31.95;;;17.60;;
60653;SDS011;46476;53.614;10.048;2022-11-14T03:46:46;29.13;;;16.33;;
60653;SDS011;46476;53.614;10.048;2022-11-14T03:49:11;31.33;;;17.05;;
60653;SDS011;46476;53.614;10.048;2022-11-14T03:51:36;28.48;;;16.65;;
60653;SDS011;46476;53.614;10.048;2022-11-14T03:54:02;28.70;;;16.52;;
60653;SDS011;46476;53.614;10.048;2022-11-14T03:56:27;29.30;;;16.52;;
60653;SDS011;46476;53.614;10.048;2022-11-14T03:58:53;28.38;;;16.83;;
60653;SDS011;46476;53.614;10.048;2022-11-14T04:01:18;27.42;;;16.08;;
60653;SDS011;46476;53.614;10.048;2022-11-14T04:03:43;32.22;;;17.85;;
60653;SDS011;46476;53.614;10.048;2022-11-14T04:06:09;25.63;;;15.40;;
60653;SDS011;46476;53.614;10.048;2022-11-14T04:08:34;31.77;;;16.83;;
60653;SDS011;46476;53.614;10.048;2022-11-14T04:10:59;26.92;;;16.67;;
60653;SDS011;46476;53.614;10.048;2022-11-14T04:13:25;26.63;;;16.63;;
60653;SDS011;46476;53.614;10.048;2022-11-14T04:15:54;27.77;;;16.33;;
60653;SDS011;46476;53.614;10.048;2022-11-14T04:18:21;30.95;;;16.35;;
60653;SDS011;46476;53.614;10.048;2022-11-14T04:20:46;29.27;;;16.67;;
60653;SDS011;46476;53.614;10.048;2022-11-14T04:23:11;27.45;;;16.15;;
60653;SDS011;46476;53.614;10.048;2022-11-14T04:25:37;26.88;;;16.35;;
60653;SDS011;46476;53.614;10.048;2022-11-14T04:28:02;29.40;;;17.40;;
60653;SDS011;46476;53.614;10.048;2022-11-14T04:30:28;27.05;;;15.77;;
60653;SDS011;46476;53.614;10.048;2022-11-14T04:32:53;29.83;;;16.98;;
60653;SDS011;46476;53.614;10.048;2022-11-14T04:35:18;26.17;;;15.52;;
60653;SDS011;46476;53.614;10.048;2022-11-14T04:37:44;25.92;;;15.77;;
60653;SDS011;46476;53.614;10.048;2022-11-14T04:40:10;27.90;;;15.68;;
60653;SDS011;46476;53.614;10.048;2022-11-14T04:42:38;24.63;;;15.52;;
60653;SDS011;46476;53.614;10.048;2022-11-14T04:45:04;29.10;;;16.92;;
60653;SDS011;46476;53.614;10.048;2022-11-14T04:47:29;27.15;;;15.63;;
60653;SDS011;46476;53.614;10.048;2022-11-14T04:49:55;26.98;;;15.95;;
60653;SDS011;46476;53.614;10.048;2022-11-14T04:52:20;26.45;;;16.73;;
60653;SDS011;46476;53.614;10.048;2022-11-14T04:54:45;25.77;;;16.15;;
60653;SDS011;46476;53.614;10.048;2022-11-14T04:57:11;28.67;;;17.25;;
60653;SDS011;46476;53.614;10.048;2022-11-14T04:59:36;27.52;;;16.67;;
60653;SDS011;46476;53.614;10.048;2022-11-14T05:02:02;29.25;;;16.35;;
60653;SDS011;46476;53.614;10.048;2022-11-14T05:04:27;27.52;;;16.17;;
60653;SDS011;46476;53.614;10.048;2022-11-14T05:06:52;27.50;;;15.90;;
60653;SDS011;46476;53.614;10.048;2022-11-14T05:09:18;24.90;;;15.63;;
60653;SDS011;46476;53.614;10.048;2022-11-14T05:11:43;26.30;;;15.68;;
60653;SDS011;46476;53.614;10.048;2022-11-14T05:14:08;28.67;;;15.90;;
60653;SDS011;46476;53.614;10.048;2022-11-14T05:16:34;27.33;;;15.95;;
60653;SDS011;46476;53.614;10.048;2022-11-14T05:18:59;26.73;;;16.45;;
60653;SDS011;46476;53.614;10.048;2022-11-14T05:21:24;26.42;;;16.83;;
60653;SDS011;46476;53.614;10.048;2022-11-14T05:23:50;26.90;;;15.70;;
60653;SDS011;46476;53.614;10.048;2022-11-14T05:26:16;27.98;;;16.15;;
60653;SDS011;46476;53.614;10.048;2022-11-14T05:28:42;31.33;;;17.38;;
60653;SDS011;46476;53.614;10.048;2022-11-14T05:31:08;29.30;;;15.75;;
60653;SDS011;46476;53.614;10.048;2022-11-14T05:33:36;28.17;;;15.13;;
60653;SDS011;46476;53.614;10.048;2022-11-14T05:36:02;31.48;;;17.20;;
60653;SDS011;46476;53.614;10.048;2022-11-14T05:38:33;28.95;;;16.73;;
60653;SDS011;46476;53.614;10.048;2022-11-14T05:40:58;29.00;;;17.15;;
60653;SDS011;46476;53.614;10.048;2022-11-14T05:43:24;26.98;;;16.00;;
60653;SDS011;46476;53.614;10.048;2022-11-14T05:45:52;28.85;;;16.00;;
60653;SDS011;46476;53.614;10.048;2022-11-14T05:48:22;27.25;;;14.40;;
60653;SDS011;46476;53.614;10.048;2022-11-14T05:50:47;26.58;;;16.17;;
60653;SDS011;46476;53.614;10.048;2022-11-14T05:53:13;28.77;;;17.50;;
60653;SDS011;46476;53.614;10.048;2022-11-14T05:55:38;33.35;;;17.73;;
60653;SDS011;46476;53.614;10.048;2022-11-14T05:58:03;26.25;;;16.20;;
60653;SDS011;46476;53.614;10.048;2022-11-14T06:00:29;27.00;;;15.90;;
60653;SDS011;46476;53.614;10.048;2022-11-14T06:02:54;27.23;;;15.13;;
60653;SDS011;46476;53.614;10.048;2022-11-14T06:05:20;26.20;;;15.15;;
60653;SDS011;46476;53.614;10.048;2022-11-14T06:07:46;29.00;;;16.33;;
60653;SDS011;46476;53.614;10.048;2022-11-14T06:10:12;26.95;;;15.07;;
60653;SDS011;46476;53.614;10.048;2022-11-14T06:12:38;24.15;;;15.10;;
60653;SDS011;46476;53.614;10.048;2022-11-14T06:15:04;28.98;;;16.95;;
60653;SDS011;46476;53.614;10.048;2022-11-14T06:17:29;31.13;;;17.38;;
60653;SDS011;46476;53.614;10.048;2022-11-14T06:19:55;27.00;;;15.45;;
60653;SDS011;46476;53.614;10.048;2022-11-14T06:22:20;25.92;;;15.40;;
60653;SDS011;46476;53.614;10.048;2022-11-14T06:24:45;27.67;;;15.98;;
60653;SDS011;46476;53.614;10.048;2022-11-14T06:27:11;26.13;;;15.73;;
60653;SDS011;46476;53.614;10.048;2022-11-14T06:29:36;29.80;;;16.15;;
60653;SDS011;46476;53.614;10.048;2022-11-14T06:32:01;29.58;;;16.65;;
60653;SDS011;46476;53.614;10.048;2022-11-14T06:34:27;29.88;;;16.77;;
60653;SDS011;46476;53.614;10.048;2022-11-14T06:36:52;28.70;;;15.98;;
60653;SDS011;46476;53.614;10.048;2022-11-14T06:39:18;28.13;;;15.40;;
60653;SDS011;46476;53.614;10.048;2022-11-14T06:41:43;25.48;;;15.50;;
60653;SDS011;46476;53.614;10.048;2022-11-14T06:44:08;30.27;;;16.90;;
60653;SDS011;46476;53.614;10.048;2022-11-14T06:46:34;25.45;;;15.95;;
60653;SDS011;46476;53.614;10.048;2022-11-14T06:48:59;28.52;;;16.55;;
60653;SDS011;46476;53.614;10.048;2022-11-14T06:51:24;36.38;;;18.52;;
60653;SDS011;46476;53.614;10.048;2022-11-14T06:53:50;28.88;;;16.25;;
60653;SDS011;46476;53.614;10.048;2022-11-14T06:56:16;29.40;;;16.73;;
60653;SDS011;46476;53.614;10.048;2022-11-14T06:58:43;28.48;;;16.75;;
60653;SDS011;46476;53.614;10.048;2022-11-14T07:01:14;30.90;;;17.63;;
60653;SDS011;46476;53.614;10.048;2022-11-14T07:06:08;28.50;;;15.65;;
60653;SDS011;46476;53.614;10.048;2022-11-14T07:08:35;33.25;;;17.95;;
60653;SDS011;46476;53.614;10.048;2022-11-14T07:11:04;34.00;;;18.98;;
60653;SDS011;46476;53.614;10.048;2022-11-14T07:13:47;32.35;;;18.13;;
60653;SDS011;46476;53.614;10.048;2022-11-14T07:16:16;33.20;;;18.58;;
60653;SDS011;46476;53.614;10.048;2022-11-14T07:18:41;32.67;;;19.58;;
60653;SDS011;46476;53.614;10.048;2022-11-14T07:21:07;32.47;;;17.65;;
60653;SDS011;46476;53.614;10.048;2022-11-14T07:23:33;31.70;;;17.48;;
60653;SDS011;46476;53.614;10.048;2022-11-14T07:26:00;30.70;;;16.17;;
60653;SDS011;46476;53.614;10.048;2022-11-14T07:28:26;34.25;;;18.20;;
60653;SDS011;46476;53.614;10.048;2022-11-14T07:30:52;33.72;;;18.55;;
60653;SDS011;46476;53.614;10.048;2022-11-14T07:33:17;33.55;;;18.88;;
60653;SDS011;46476;53.614;10.048;2022-11-14T07:35:42;35.42;;;18.63;;
60653;SDS011;46476;53.614;10.048;2022-11-14T07:38:08;33.70;;;18.10;;
60653;SDS011;46476;53.614;10.048;2022-11-14T07:40:33;34.42;;;18.38;;
60653;SDS011;46476;53.614;10.048;2022-11-14T07:42:59;35.78;;;19.58;;
60653;SDS011;46476;53.614;10.048;2022-11-14T07:45:26;33.72;;;18.13;;
60653;SDS011;46476;53.614;10.048;2022-11-14T07:47:55;35.40;;;18.45;;
60653;SDS011;46476;53.614;10.048;2022-11-14T07:50:22;35.38;;;19.00;;
60653;SDS011;46476;53.614;10.048;2022-11-14T07:52:51;33.92;;;17.13;;
60653;SDS011;46476;53.614;10.048;2022-11-14T07:55:18;35.28;;;17.75;;
60653;SDS011;46476;53.614;10.048;2022-11-14T07:57:44;32.60;;;18.37;;
60653;SDS011;46476;53.614;10.048;2022-11-14T08:00:10;34.58;;;18.45;;
60653;SDS011;46476;53.614;10.048;2022-11-14T08:02:36;33.45;;;17.92;;
60653;SDS011;46476;53.614;10.048;2022-11-14T08:05:01;35.30;;;18.13;;
60653;SDS011;46476;53.614;10.048;2022-11-14T08:07:27;37.65;;;19.00;;
60653;SDS011;46476;53.614;10.048;2022-11-14T08:09:52;33.85;;;17.98;;
60653;SDS011;46476;53.614;10.048;2022-11-14T08:12:17;33.63;;;17.67;;
60653;SDS011;46476;53.614;10.048;2022-11-14T08:14:43;37.45;;;19.98;;
60653;SDS011;46476;53.614;10.048;2022-11-14T08:17:08;36.55;;;18.77;;
60653;SDS011;46476;53.614;10.048;2022-11-14T08:19:33;34.97;;;18.23;;
60653;SDS011;46476;53.614;10.048;2022-11-14T08:21:59;36.22;;;17.83;;
60653;SDS011;46476;53.614;10.048;2022-11-14T08:24:24;35.90;;;18.63;;
60653;SDS011;46476;53.614;10.048;2022-11-14T08:26:49;31.98;;;17.40;;
60653;SDS011;46476;53.614;10.048;2022-11-14T08:29:15;33.55;;;17.33;;
60653;SDS011;46476;53.614;10.048;2022-11-14T08:31:40;36.33;;;17.90;;
60653;SDS011;46476;53.614;10.048;2022-11-14T08:34:05;34.13;;;17.42;;
60653;SDS011;46476;53.614;10.048;2022-11-14T08:36:31;34.63;;;18.27;;
60653;SDS011;46476;53.614;10.048;2022-11-14T08:38:56;33.60;;;17.33;;
60653;SDS011;46476;53.614;10.048;2022-11-14T08:41:21;32.20;;;17.48;;
60653;SDS011;46476;53.614;10.048;2022-11-14T08:43:47;34.78;;;17.38;;
60653;SDS011;46476;53.614;10.048;2022-11-14T08:46:12;36.35;;;17.85;;
60653;SDS011;46476;53.614;10.048;2022-11-14T08:48:37;35.05;;;18.25;;
60653;SDS011;46476;53.614;10.048;2022-11-14T08:51:06;37.33;;;18.70;;
60653;SDS011;46476;53.614;10.048;2022-11-14T08:53:32;33.45;;;17.38;;
60653;SDS011;46476;53.614;10.048;2022-11-14T08:55:58;33.58;;;18.10;;
60653;SDS011;46476;53.614;10.048;2022-11-14T08:58:25;36.97;;;18.67;;
60653;SDS011;46476;53.614;10.048;2022-11-14T09:00:52;37.05;;;18.40;;
60653;SDS011;46476;53.614;10.048;2022-11-14T09:03:17;33.55;;;17.42;;
60653;SDS011;46476;53.614;10.048;2022-11-14T09:05:42;36.50;;;17.27;;
60653;SDS011;46476;53.614;10.048;2022-11-14T09:08:08;36.72;;;17.92;;
60653;SDS011;46476;53.614;10.048;2022-11-14T09:10:34;38.03;;;18.67;;
60653;SDS011;46476;53.614;10.048;2022-11-14T09:13:01;35.90;;;18.55;;
60653;SDS011;46476;53.614;10.048;2022-11-14T09:15:27;36.38;;;18.23;;
60653;SDS011;46476;53.614;10.048;2022-11-14T09:17:53;37.50;;;18.80;;
60653;SDS011;46476;53.614;10.048;2022-11-14T09:20:19;34.13;;;17.80;;
60653;SDS011;46476;53.614;10.048;2022-11-14T09:22:45;35.90;;;17.92;;
60653;SDS011;46476;53.614;10.048;2022-11-14T09:25:10;34.30;;;17.60;;
60653;SDS011;46476;53.614;10.048;2022-11-14T09:27:36;32.50;;;17.33;;
60653;SDS011;46476;53.614;10.048;2022-11-14T09:30:01;35.97;;;18.80;;
60653;SDS011;46476;53.614;10.048;2022-11-14T09:32:27;36.35;;;18.00;;
60653;SDS011;46476;53.614;10.048;2022-11-14T09:34:53;33.28;;;17.52;;
60653;SDS011;46476;53.614;10.048;2022-11-14T09:37:18;36.97;;;17.88;;
60653;SDS011;46476;53.614;10.048;2022-11-14T09:39:43;37.00;;;18.60;;
60653;SDS011;46476;53.614;10.048;2022-11-14T09:42:53;38.53;;;18.45;;
60653;SDS011;46476;53.614;10.048;2022-11-14T09:45:16;37.58;;;18.05;;
60653;SDS011;46476;53.614;10.048;2022-11-14T09:47:47;39.20;;;18.63;;
60653;SDS011;46476;53.614;10.048;2022-11-14T09:50:25;40.83;;;19.25;;
60653;SDS011;46476;53.614;10.048;2022-11-14T09:52:55;35.50;;;19.02;;
60653;SDS011;46476;53.614;10.048;2022-11-14T09:55:27;34.90;;;17.58;;
60653;SDS011;46476;53.614;10.048;2022-11-14T09:57:55;36.22;;;17.30;;
60653;SDS011;46476;53.614;10.048;2022-11-14T10:00:22;32.03;;;17.20;;
60653;SDS011;46476;53.614;10.048;2022-11-14T10:03:11;31.58;;;17.80;;
60653;SDS011;46476;53.614;10.048;2022-11-14T10:08:48;31.75;;;15.75;;
60653;SDS011;46476;53.614;10.048;2022-11-14T10:11:37;34.15;;;17.50;;
60653;SDS011;46476;53.614;10.048;2022-11-14T10:14:30;35.72;;;16.67;;
60653;SDS011;46476;53.614;10.048;2022-11-14T10:20:32;35.60;;;17.88;;
60653;SDS011;46476;53.614;10.048;2022-11-14T10:41:42;33.10;;;17.77;;
60653;SDS011;46476;53.614;10.048;2022-11-14T10:44:11;28.02;;;16.42;;
60653;SDS011;46476;53.614;10.048;2022-11-14T10:46:44;33.63;;;16.50;;
60653;SDS011;46476;53.614;10.048;2022-11-14T10:49:16;28.02;;;15.88;;
60653;SDS011;46476;53.614;10.048;2022-11-14T10:51:45;32.17;;;17.35;;
60653;SDS011;46476;53.614;10.048;2022-11-14T10:54:21;32.42;;;17.90;;
60653;SDS011;46476;53.614;10.048;2022-11-14T10:57:00;31.83;;;17.50;;
60653;SDS011;46476;53.614;10.048;2022-11-14T10:59:26;35.40;;;17.50;;
60653;SDS011;46476;53.614;10.048;2022-11-14T11:01:56;33.80;;;16.98;;
60653;SDS011;46476;53.614;10.048;2022-11-14T11:06:52;32.30;;;16.65;;
60653;SDS011;46476;53.614;10.048;2022-11-14T11:09:20;33.67;;;17.38;;
60653;SDS011;46476;53.614;10.048;2022-11-14T11:12:06;33.00;;;18.15;;
60653;SDS011;46476;53.614;10.048;2022-11-14T11:14:33;32.08;;;16.35;;
60653;SDS011;46476;53.614;10.048;2022-11-14T11:19:40;30.02;;;16.77;;
60653;SDS011;46476;53.614;10.048;2022-11-14T11:22:22;31.60;;;16.67;;
60653;SDS011;46476;53.614;10.048;2022-11-14T11:24:49;32.85;;;16.98;;
60653;SDS011;46476;53.614;10.048;2022-11-14T11:29:45;30.65;;;17.55;;
60653;SDS011;46476;53.614;10.048;2022-11-14T11:32:11;29.13;;;17.38;;
60653;SDS011;46476;53.614;10.048;2022-11-14T11:34:48;30.20;;;16.48;;
60653;SDS011;46476;53.614;10.048;2022-11-14T11:37:29;32.00;;;17.05;;
60653;SDS011;46476;53.614;10.048;2022-11-14T11:40:00;31.08;;;16.73;;
60653;SDS011;46476;53.614;10.048;2022-11-14T11:42:39;31.92;;;16.85;;
60653;SDS011;46476;53.614;10.048;2022-11-14T11:45:31;27.00;;;15.40;;
60653;SDS011;46476;53.614;10.048;2022-11-14T11:50:40;30.00;;;15.63;;
60653;SDS011;46476;53.614;10.048;2022-11-14T11:55:50;30.42;;;16.30;;
60653;SDS011;46476;53.614;10.048;2022-11-14T12:01:13;28.27;;;15.70;;
60653;SDS011;46476;53.614;10.048;2022-11-14T12:03:45;29.92;;;16.67;;
60653;SDS011;46476;53.614;10.048;2022-11-14T12:11:35;30.58;;;15.57;;
60653;SDS011;46476;53.614;10.048;2022-11-14T12:27:55;25.98;;;15.48;;
60653;SDS011;46476;53.614;10.048;2022-11-14T12:30:47;25.77;;;15.77;;
60653;SDS011;46476;53.614;10.048;2022-11-14T12:33:27;28.98;;;15.38;;
60653;SDS011;46476;53.614;10.048;2022-11-14T12:36:03;28.85;;;15.90;;
60653;SDS011;46476;53.614;10.048;2022-11-14T12:38:33;28.50;;;15.77;;
60653;SDS011;46476;53.614;10.048;2022-11-14T12:41:07;28.45;;;15.65;;
60653;SDS011;46476;53.614;10.048;2022-11-14T12:43:37;26.38;;;15.82;;
60653;SDS011;46476;53.614;10.048;2022-11-14T12:46:08;33.72;;;17.67;;
60653;SDS011;46476;53.614;10.048;2022-11-14T12:48:42;31.25;;;15.57;;
60653;SDS011;46476;53.614;10.048;2022-11-14T12:53:49;28.55;;;15.20;;
60653;SDS011;46476;53.614;10.048;2022-11-14T12:58:58;27.83;;;15.98;;
60653;SDS011;46476;53.614;10.048;2022-11-14T13:04:23;27.17;;;15.20;;
60653;SDS011;46476;53.614;10.048;2022-11-14T13:07:06;29.42;;;15.85;;
60653;SDS011;46476;53.614;10.048;2022-11-14T13:12:33;29.25;;;15.98;;
60653;SDS011;46476;53.614;10.048;2022-11-14T13:18:12;28.67;;;16.25;;
60653;SDS011;46476;53.614;10.048;2022-11-14T13:21:22;30.35;;;16.88;;
60653;SDS011;46476;53.614;10.048;2022-11-14T13:24:14;31.60;;;17.00;;
60653;SDS011;46476;53.614;10.048;2022-11-14T13:32:10;30.33;;;16.48;;
60653;SDS011;46476;53.614;10.048;2022-11-14T13:42:58;29.10;;;16.65;;
60653;SDS011;46476;53.614;10.048;2022-11-14T13:45:44;30.70;;;16.45;;
60653;SDS011;46476;53.614;10.048;2022-11-14T13:51:05;28.73;;;15.80;;
60653;SDS011;46476;53.614;10.048;2022-11-14T13:53:33;29.10;;;15.57;;
60653;SDS011;46476;53.614;10.048;2022-11-14T14:04:07;30.98;;;15.38;;
60653;SDS011;46476;53.614;10.048;2022-11-14T14:21:49;28.90;;;15.75;;
60653;SDS011;46476;53.614;10.048;2022-11-14T14:24:38;29.50;;;14.77;;
60653;SDS011;46476;53.614;10.048;2022-11-14T14:27:29;26.70;;;15.15;;
60653;SDS011;46476;53.614;10.048;2022-11-14T14:30:10;32.42;;;15.77;;
60653;SDS011;46476;53.614;10.048;2022-11-14T14:32:38;28.48;;;15.70;;
60653;SDS011;46476;53.614;10.048;2022-11-14T14:37:51;28.90;;;15.45;;
60653;SDS011;46476;53.614;10.048;2022-11-14T14:40:22;26.85;;;14.98;;
60653;SDS011;46476;53.614;10.048;2022-11-14T14:42:54;29.10;;;15.65;;
60653;SDS011;46476;53.614;10.048;2022-11-14T14:45:23;27.02;;;14.45;;
60653;SDS011;46476;53.614;10.048;2022-11-14T14:48:02;31.20;;;16.40;;
60653;SDS011;46476;53.614;10.048;2022-11-14T14:50:37;28.02;;;15.55;;
60653;SDS011;46476;53.614;10.048;2022-11-14T14:53:06;30.27;;;15.45;;
60653;SDS011;46476;53.614;10.048;2022-11-14T14:55:49;27.77;;;16.02;;
60653;SDS011;46476;53.614;10.048;2022-11-14T15:01:01;32.92;;;16.30;;
60653;SDS011;46476;53.614;10.048;2022-11-14T15:03:48;29.48;;;15.80;;
60653;SDS011;46476;53.614;10.048;2022-11-14T15:06:36;26.63;;;14.93;;
60653;SDS011;46476;53.614;10.048;2022-11-14T15:11:39;29.35;;;16.08;;
60653;SDS011;46476;53.614;10.048;2022-11-14T15:14:20;30.42;;;16.25;;
60653;SDS011;46476;53.614;10.048;2022-11-14T15:16:48;29.27;;;15.55;;
60653;SDS011;46476;53.614;10.048;2022-11-14T15:19:15;26.80;;;15.18;;
60653;SDS011;46476;53.614;10.048;2022-11-14T15:21:44;28.15;;;16.38;;
60653;SDS011;46476;53.614;10.048;2022-11-14T15:24:14;28.88;;;15.68;;
60653;SDS011;46476;53.614;10.048;2022-11-14T15:26:40;27.23;;;16.17;;
60653;SDS011;46476;53.614;10.048;2022-11-14T15:29:15;29.98;;;16.92;;
60653;SDS011;46476;53.614;10.048;2022-11-14T15:31:45;28.08;;;16.05;;
60653;SDS011;46476;53.614;10.048;2022-11-14T15:39:34;31.35;;;17.27;;
60653;SDS011;46476;53.614;10.048;2022-11-14T15:42:17;30.52;;;17.17;;
60653;SDS011;46476;53.614;10.048;2022-11-14T15:50:22;31.30;;;16.05;;
60653;SDS011;46476;53.614;10.048;2022-11-14T15:52:54;31.15;;;17.10;;
60653;SDS011;46476;53.614;10.048;2022-11-14T15:55:23;32.90;;;17.20;;
60653;SDS011;46476;53.614;10.048;2022-11-14T15:57:49;29.15;;;15.88;;
60653;SDS011;46476;53.614;10.048;2022-11-14T16:00:15;29.90;;;16.30;;
60653;SDS011;46476;53.614;10.048;2022-11-14T16:02:42;31.13;;;16.05;;
60653;SDS011;46476;53.614;10.048;2022-11-14T16:05:11;28.08;;;16.83;;
60653;SDS011;46476;53.614;10.048;2022-11-14T16:07:38;30.70;;;17.38;;
60653;SDS011;46476;53.614;10.048;2022-11-14T16:10:13;29.00;;;15.77;;
60653;SDS011;46476;53.614;10.048;2022-11-14T16:12:43;33.08;;;17.45;;
60653;SDS011;46476;53.614;10.048;2022-11-14T16:15:09;32.13;;;17.92;;
60653;SDS011;46476;53.614;10.048;2022-11-14T16:17:39;31.30;;;16.42;;
60653;SDS011;46476;53.614;10.048;2022-11-14T16:20:09;27.92;;;16.67;;
60653;SDS011;46476;53.614;10.048;2022-11-14T16:22:40;31.65;;;16.17;;
60653;SDS011;46476;53.614;10.048;2022-11-14T16:25:09;31.38;;;16.23;;
60653;SDS011;46476;53.614;10.048;2022-11-14T16:27:58;35.17;;;17.67;;
60653;SDS011;46476;53.614;10.048;2022-11-14T16:30:24;28.00;;;15.80;;
60653;SDS011;46476;53.614;10.048;2022-11-14T16:32:50;27.08;;;16.08;;
60653;SDS011;46476;53.614;10.048;2022-11-14T16:35:16;28.90;;;16.38;;